createdAt,value
2023-02-02T00:01:28.155Z,8.70
2023-02-02T00:06:32.502Z,8.69
2023-02-02T00:11:37.025Z,8.72
2023-02-02T00:16:45.299Z,8.74
2023-02-02T00:21:48.785Z,8.76
2023-02-02T00:26:55.174Z,8.75
2023-02-02T00:31:58.982Z,8.74
2023-02-02T00:37:02.142Z,8.70
2023-02-02T00:42:06.870Z,8.70
2023-02-02T00:47:10.060Z,8.76
2023-02-02T00:52:13.215Z,8.79
2023-02-02T00:57:17.814Z,8.78
2023-02-02T01:02:20.950Z,8.73
2023-02-02T01:07:24.267Z,8.66
2023-02-02T01:12:28.906Z,8.66
2023-02-02T01:17:32.085Z,8.60
2023-02-02T01:22:35.526Z,8.63
2023-02-02T01:27:40.220Z,8.65
2023-02-02T01:32:43.404Z,8.69
2023-02-02T01:37:46.607Z,8.72
2023-02-02T01:42:51.199Z,8.70
2023-02-02T01:47:57.564Z,8.68
2023-02-02T01:53:02.610Z,8.76
2023-02-02T01:58:12.159Z,8.75
2023-02-02T02:03:18.578Z,8.83
2023-02-02T02:08:26.023Z,8.69
2023-02-02T02:13:46.770Z,8.74
2023-02-02T02:18:56.533Z,8.71
2023-02-02T02:24:44.615Z,8.65
2023-02-02T02:30:10.458Z,8.67
2023-02-02T02:35:24.876Z,8.62
2023-02-02T02:40:33.433Z,8.69
2023-02-02T02:45:38.519Z,8.64
2023-02-02T02:50:43.128Z,8.61
2023-02-02T02:55:53.163Z,8.64
2023-02-02T03:01:06.188Z,8.57
2023-02-02T03:06:16.538Z,8.53
2023-02-02T03:11:19.850Z,8.50
2023-02-02T03:16:23.156Z,8.46
2023-02-02T03:21:27.827Z,8.41
2023-02-02T03:26:31.277Z,8.42
2023-02-02T03:31:34.812Z,8.36
2023-02-02T03:36:39.449Z,8.33
2023-02-02T03:41:42.739Z,8.34
2023-02-02T03:46:46.083Z,8.36
2023-02-02T03:51:50.771Z,8.29
2023-02-02T03:56:54.075Z,8.37
2023-02-02T04:01:57.299Z,8.36
2023-02-02T04:07:02.577Z,8.30
2023-02-02T04:12:06.084Z,8.37
2023-02-02T04:17:09.349Z,8.39
2023-02-02T04:22:14.066Z,8.40
2023-02-02T04:27:17.333Z,8.36
2023-02-02T04:32:20.774Z,8.34
2023-02-02T04:37:25.474Z,8.30
2023-02-02T04:42:28.715Z,8.25
2023-02-02T04:47:32.010Z,8.24
2023-02-02T04:52:36.688Z,8.23
2023-02-02T04:57:39.927Z,8.23
2023-02-02T05:02:43.703Z,8.16
2023-02-02T05:07:48.326Z,8.07
2023-02-02T05:12:53.856Z,8.03
2023-02-02T05:17:57.102Z,8.01
2023-02-02T05:23:01.764Z,8.01
2023-02-02T05:28:05.059Z,7.95
2023-02-02T05:33:08.388Z,7.89
2023-02-02T05:38:13.137Z,7.90
2023-02-02T05:43:16.327Z,7.87
2023-02-02T05:48:19.618Z,7.80
2023-02-02T05:53:24.485Z,7.77
2023-02-02T05:58:28.264Z,7.68
2023-02-02T06:03:31.672Z,7.72
2023-02-02T06:08:37.430Z,7.68
2023-02-02T06:13:40.751Z,7.67
2023-02-02T06:18:44.063Z,7.60
2023-02-02T06:23:49.942Z,7.61
2023-02-02T06:28:55.052Z,7.57
2023-02-02T06:33:59.871Z,7.61
2023-02-02T06:39:06.089Z,7.55
2023-02-02T06:44:09.353Z,7.54
2023-02-02T06:49:12.618Z,7.56
2023-02-02T06:54:17.487Z,7.50
2023-02-02T06:59:20.940Z,7.48
2023-02-02T07:04:24.202Z,7.46
2023-02-02T07:09:28.845Z,7.44
2023-02-02T07:14:32.016Z,7.44
2023-02-02T07:19:35.268Z,7.44
2023-02-02T07:24:39.941Z,7.40
2023-02-02T07:29:43.144Z,7.41
2023-02-02T07:34:46.377Z,7.42
2023-02-02T07:39:51.030Z,7.37
2023-02-02T07:44:54.256Z,7.37
2023-02-02T07:49:57.533Z,7.29
2023-02-02T07:55:14.030Z,7.31
2023-02-02T08:00:18.704Z,7.31
2023-02-02T08:05:23.127Z,7.28
2023-02-02T08:10:28.111Z,7.27
2023-02-02T08:15:31.309Z,7.29
2023-02-02T08:20:34.632Z,7.31
2023-02-02T08:25:39.322Z,7.32
2023-02-02T08:30:42.722Z,7.29
2023-02-02T08:35:47.419Z,7.36
2023-02-02T08:40:52.778Z,7.45
2023-02-02T08:46:02.113Z,7.63
2023-02-02T08:51:09.700Z,7.84
2023-02-02T08:56:16.336Z,8.01
2023-02-02T09:01:21.605Z,8.21
2023-02-02T09:06:27.517Z,8.26
2023-02-02T09:11:32.209Z,8.45
2023-02-02T09:16:36.498Z,8.49
2023-02-02T09:21:40.757Z,8.60
2023-02-02T09:26:46.544Z,8.61
2023-02-02T09:31:49.961Z,8.76
2023-02-02T09:36:54.534Z,8.81
2023-02-02T09:42:40.962Z,8.82
2023-02-02T09:48:11.281Z,9.05
2023-02-02T09:53:22.231Z,9.11
2023-02-02T09:58:32.464Z,9.16
2023-02-02T10:03:42.056Z,9.28
2023-02-02T10:08:50.283Z,9.28
2023-02-02T10:13:58.558Z,9.36
2023-02-02T10:19:05.909Z,9.34
2023-02-02T10:24:17.705Z,9.41
2023-02-02T10:29:48.065Z,9.40
2023-02-02T10:35:18.771Z,9.50
2023-02-02T10:40:38.449Z,9.61
2023-02-02T10:45:45.396Z,9.76
2023-02-02T10:50:51.300Z,9.79
2023-02-02T10:56:01.024Z,9.78
2023-02-02T11:01:08.057Z,9.87
2023-02-02T11:06:32.317Z,9.97
2023-02-02T11:11:40.670Z,9.92
2023-02-02T11:16:46.532Z,10.09
2023-02-02T11:21:51.697Z,10.33
2023-02-02T11:26:55.971Z,10.04
2023-02-02T11:32:18.983Z,10.20
2023-02-02T11:37:23.747Z,10.34
2023-02-02T11:42:27.386Z,10.41
2023-02-02T11:47:34.144Z,10.64
2023-02-02T11:52:40.480Z,10.84
2023-02-02T11:58:19.782Z,10.83
2023-02-02T12:03:32.052Z,10.83
2023-02-02T12:08:35.193Z,10.99
2023-02-02T12:14:01.877Z,11.22
2023-02-02T12:19:46.612Z,11.31
2023-02-02T12:24:56.855Z,11.58
2023-02-02T12:30:13.798Z,12.00
2023-02-02T12:35:47.598Z,12.33
2023-02-02T12:41:11.192Z,13.07
2023-02-02T12:46:28.054Z,14.01
2023-02-02T12:51:54.419Z,14.81
2023-02-02T12:57:08.273Z,15.56
2023-02-02T13:02:25.279Z,16.07
2023-02-02T13:07:36.682Z,15.72
2023-02-02T13:12:44.839Z,16.70
2023-02-02T13:17:52.464Z,16.43
2023-02-02T13:23:00.440Z,16.93
2023-02-02T13:28:07.468Z,16.78
2023-02-02T13:33:18.013Z,16.41
2023-02-02T13:38:24.598Z,16.74
2023-02-02T13:43:39.976Z,16.40
2023-02-02T13:48:54.979Z,17.03
2023-02-02T13:54:23.033Z,16.61
2023-02-02T13:59:49.286Z,16.43
2023-02-02T14:04:57.982Z,16.88
2023-02-02T14:10:04.616Z,16.99
2023-02-02T14:15:13.470Z,16.84
2023-02-02T14:20:41.758Z,16.86
2023-02-02T14:26:06.606Z,17.03
2023-02-02T14:31:27.679Z,16.97
2023-02-02T14:36:31.877Z,17.06
2023-02-02T14:42:23.569Z,16.96
2023-02-02T14:47:55.312Z,16.88
2023-02-02T14:53:02.860Z,17.31
2023-02-02T14:58:08.960Z,17.19
2023-02-02T15:03:36.088Z,16.52
2023-02-02T15:08:39.329Z,17.16
2023-02-02T15:13:46.875Z,16.99
2023-02-02T15:19:00.928Z,16.91
2023-02-02T15:24:06.308Z,16.80
2023-02-02T15:29:20.647Z,16.86
2023-02-02T15:34:28.571Z,16.85
2023-02-02T15:39:35.013Z,16.95
2023-02-02T15:44:40.034Z,16.61
2023-02-02T15:49:43.559Z,16.57
2023-02-02T15:54:54.872Z,16.60
2023-02-02T16:00:00.703Z,16.49
2023-02-02T16:05:04.044Z,16.12
2023-02-02T16:10:09.336Z,15.98
2023-02-02T16:15:22.127Z,15.62
2023-02-02T16:20:25.481Z,15.66
2023-02-02T16:25:32.011Z,15.36
2023-02-02T16:30:39.915Z,15.23
2023-02-02T16:35:43.173Z,14.90
2023-02-02T16:40:46.421Z,15.00
2023-02-02T16:45:53.220Z,14.82
2023-02-02T16:51:10.106Z,14.66
2023-02-02T16:56:25.103Z,14.44
2023-02-02T17:01:39.059Z,14.37
2023-02-02T17:06:52.225Z,14.39
2023-02-02T17:12:01.384Z,14.09
2023-02-02T17:17:07.683Z,13.87
2023-02-02T17:22:11.864Z,13.57
2023-02-02T17:27:18.277Z,13.36
2023-02-02T17:32:23.999Z,13.25
2023-02-02T17:37:27.258Z,13.08
2023-02-02T17:42:31.352Z,12.98
2023-02-02T17:47:37.757Z,12.90
2023-02-02T17:52:41.468Z,12.87
2023-02-02T17:57:47.110Z,12.76
2023-02-02T18:02:56.892Z,12.62
2023-02-02T18:08:00.456Z,12.57
2023-02-02T18:13:03.835Z,12.51
2023-02-02T18:18:08.708Z,12.39
2023-02-02T18:23:12.549Z,12.34
2023-02-02T18:28:17.986Z,12.30
2023-02-02T18:33:23.663Z,12.21
2023-02-02T18:38:26.925Z,12.17
2023-02-02T18:43:30.183Z,12.14
2023-02-02T18:48:34.743Z,12.06
2023-02-02T18:53:38.059Z,12.01
2023-02-02T18:58:42.000Z,11.93
2023-02-02T19:03:50.023Z,11.86
2023-02-02T19:08:53.759Z,11.85
2023-02-02T19:13:57.572Z,11.70
2023-02-02T19:19:09.232Z,11.55
2023-02-02T19:24:13.921Z,11.21
2023-02-02T19:29:20.137Z,10.93
2023-02-02T19:34:24.755Z,10.58
2023-02-02T19:39:31.963Z,10.41
2023-02-02T19:44:36.032Z,10.35
2023-02-02T19:49:40.594Z,10.32
2023-02-02T19:54:45.202Z,10.17
2023-02-02T19:59:51.132Z,10.08
2023-02-02T20:05:03.757Z,9.95
2023-02-02T20:10:19.040Z,9.97
2023-02-02T20:15:26.107Z,9.96
2023-02-02T20:20:35.836Z,9.93
2023-02-02T20:25:38.984Z,9.97
2023-02-02T20:30:42.460Z,9.84
2023-02-02T20:35:47.014Z,9.96
2023-02-02T20:40:52.205Z,9.56
2023-02-02T20:45:55.445Z,9.70
2023-02-02T20:51:00.146Z,9.76
2023-02-02T20:56:03.678Z,9.76
2023-02-02T21:01:07.033Z,9.82
2023-02-02T21:06:11.585Z,9.40
2023-02-02T21:11:14.899Z,8.99
2023-02-02T21:16:18.322Z,9.03
2023-02-02T21:21:23.067Z,9.37
2023-02-02T21:26:30.827Z,9.59
2023-02-02T21:31:35.874Z,9.50
2023-02-02T21:36:43.973Z,9.21
2023-02-02T21:41:47.261Z,9.02
2023-02-02T21:46:52.654Z,8.98
2023-02-02T21:52:00.419Z,9.14
2023-02-02T21:57:06.409Z,9.24
2023-02-02T22:02:30.323Z,9.19
2023-02-02T22:07:34.945Z,9.03
2023-02-02T22:12:38.223Z,9.01
2023-02-02T22:17:43.731Z,8.77
2023-02-02T22:22:51.180Z,8.71
2023-02-02T22:27:57.725Z,8.46
2023-02-02T22:33:01.101Z,8.42
2023-02-02T22:38:06.927Z,8.66
2023-02-02T22:43:10.317Z,8.74
2023-02-02T22:48:14.521Z,8.76
2023-02-02T22:53:19.159Z,8.87
2023-02-02T22:58:22.373Z,8.77
2023-02-02T23:03:25.769Z,8.83
2023-02-02T23:08:30.436Z,8.76
2023-02-02T23:13:33.666Z,8.79
2023-02-02T23:18:36.934Z,8.69
2023-02-02T23:23:41.587Z,8.60
2023-02-02T23:28:44.783Z,8.61
2023-02-02T23:33:48.035Z,8.43
2023-02-02T23:38:52.638Z,8.40
2023-02-02T23:43:56.005Z,8.46
2023-02-02T23:49:00.807Z,8.41
2023-02-02T23:54:05.844Z,8.25
2023-02-02T23:59:09.336Z,8.22
